createdAt,value
2023-02-20T00:00:55.364Z,99312.59
2023-02-20T00:03:58.038Z,99311.78
2023-02-20T00:07:00.646Z,99309.22
2023-02-20T00:10:05.230Z,99306.44
2023-02-20T00:13:07.892Z,99303.75
2023-02-20T00:16:10.880Z,99303.19
2023-02-20T00:19:13.695Z,99296.09
2023-02-20T00:22:16.660Z,99293.16
2023-02-20T00:25:22.544Z,99296.91
2023-02-20T00:28:25.847Z,99296.41
2023-02-20T00:31:28.572Z,99295.84
2023-02-20T00:34:31.254Z,99289.94
2023-02-20T00:37:34.340Z,99297.63
2023-02-20T00:40:38.293Z,99313.38
2023-02-20T00:43:41.443Z,99315.13
2023-02-20T00:46:44.207Z,99328.34
2023-02-20T00:49:46.838Z,99326.16
2023-02-20T00:52:49.467Z,99324.66
2023-02-20T00:55:53.528Z,99329.28
2023-02-20T00:58:56.233Z,99321.16
2023-02-20T01:01:59.112Z,99322.09
2023-02-20T01:05:02.091Z,99319.66
2023-02-20T01:08:05.083Z,99330.69
2023-02-20T01:11:09.044Z,99329.53
2023-02-20T01:14:12.370Z,99333.59
2023-02-20T01:17:15.189Z,99328.00
2023-02-20T01:20:17.996Z,99315.34
2023-02-20T01:23:20.625Z,99315.06
2023-02-20T01:26:24.664Z,99306.69
2023-02-20T01:29:30.287Z,99312.72
2023-02-20T01:32:33.048Z,99320.59
2023-02-20T01:35:36.007Z,99315.72
2023-02-20T01:38:40.838Z,99308.59
2023-02-20T01:41:48.242Z,99313.13
2023-02-20T01:44:52.896Z,99303.28
2023-02-20T01:47:58.214Z,99302.56
2023-02-20T01:51:01.676Z,99295.22
2023-02-20T01:54:05.251Z,99292.06
2023-02-20T01:57:13.208Z,99283.03
2023-02-20T02:00:20.005Z,99296.81
2023-02-20T02:03:26.463Z,99285.91
2023-02-20T02:06:31.335Z,99292.00
2023-02-20T02:09:45.271Z,99289.13
2023-02-20T02:12:52.239Z,99288.88
2023-02-20T02:16:07.399Z,99289.75
2023-02-20T02:19:27.672Z,99292.88
2023-02-20T02:22:58.094Z,99291.25
2023-02-20T02:26:19.503Z,99286.88
2023-02-20T02:29:54.798Z,99291.22
2023-02-20T02:33:41.632Z,99289.25
2023-02-20T02:37:03.848Z,99290.56
2023-02-20T02:40:14.198Z,99285.91
2023-02-20T02:43:21.436Z,99291.47
2023-02-20T02:46:31.541Z,99285.69
2023-02-20T02:49:39.164Z,99279.16
2023-02-20T02:52:48.721Z,99279.09
2023-02-20T02:55:51.431Z,99266.75
2023-02-20T02:58:56.120Z,99262.84
2023-02-20T03:02:03.927Z,99266.75
2023-02-20T03:05:10.284Z,99263.97
2023-02-20T03:08:30.889Z,99265.25
2023-02-20T03:11:35.655Z,99270.66
2023-02-20T03:15:01.251Z,99269.16
2023-02-20T03:18:15.807Z,99270.00
2023-02-20T03:21:22.157Z,99275.91
2023-02-20T03:24:28.989Z,99273.34
2023-02-20T03:27:39.112Z,99265.19
2023-02-20T03:30:48.173Z,99264.06
2023-02-20T03:34:14.486Z,99255.81
2023-02-20T03:37:38.732Z,99269.88
2023-02-20T03:41:01.054Z,99277.13
2023-02-20T03:44:06.876Z,99269.78
2023-02-20T03:47:14.451Z,99273.78
2023-02-20T03:50:35.264Z,99276.69
2023-02-20T03:53:38.388Z,99274.53
2023-02-20T03:56:45.296Z,99279.00
2023-02-20T03:59:51.761Z,99270.94
2023-02-20T04:02:58.320Z,99272.47
2023-02-20T04:06:03.355Z,99263.97
2023-02-20T04:09:11.436Z,99256.94
2023-02-20T04:12:21.364Z,99259.47
2023-02-20T04:15:25.307Z,99252.00
2023-02-20T04:18:30.325Z,99247.53
2023-02-20T04:21:39.995Z,99246.72
2023-02-20T04:24:48.912Z,99251.16
2023-02-20T04:27:53.120Z,99248.13
2023-02-20T04:30:55.882Z,99250.03
2023-02-20T04:33:58.639Z,99244.53
2023-02-20T04:37:08.509Z,99245.22
2023-02-20T04:40:11.847Z,99252.88
2023-02-20T04:43:15.851Z,99241.44
2023-02-20T04:46:18.920Z,99256.69
2023-02-20T04:49:21.643Z,99252.81
2023-02-20T04:52:24.681Z,99258.63
2023-02-20T04:55:28.756Z,99270.78
2023-02-20T04:58:34.113Z,99266.56
2023-02-20T05:01:37.233Z,99261.06
2023-02-20T05:04:39.990Z,99268.25
2023-02-20T05:07:42.691Z,99268.84
2023-02-20T05:10:45.835Z,99262.94
2023-02-20T05:13:49.931Z,99262.34
2023-02-20T05:16:52.637Z,99263.78
2023-02-20T05:19:55.369Z,99261.53
2023-02-20T05:22:57.038Z,99262.31
2023-02-20T05:25:59.718Z,99251.63
2023-02-20T05:29:03.754Z,99256.94
2023-02-20T05:32:06.719Z,99252.03
2023-02-20T05:35:09.717Z,99250.09
2023-02-20T05:38:17.999Z,99257.03
2023-02-20T05:41:21.382Z,99258.19
2023-02-20T05:44:26.425Z,99254.88
2023-02-20T05:47:29.064Z,99255.66
2023-02-20T05:50:32.592Z,99261.59
2023-02-20T05:53:35.258Z,99252.78
2023-02-20T05:56:42.377Z,99257.28
2023-02-20T05:59:46.403Z,99261.06
2023-02-20T06:02:49.085Z,99260.41
2023-02-20T06:05:51.756Z,99262.22
2023-02-20T06:08:54.432Z,99253.72
2023-02-20T06:11:58.026Z,99254.34
2023-02-20T06:15:02.148Z,99255.63
2023-02-20T06:18:04.972Z,99262.38
2023-02-20T06:21:09.384Z,99265.88
2023-02-20T06:24:12.181Z,99264.81
2023-02-20T06:27:15.229Z,99260.09
2023-02-20T06:30:19.643Z,99260.09
2023-02-20T06:33:22.462Z,99264.81
2023-02-20T06:36:28.294Z,99259.63
2023-02-20T06:39:32.346Z,99266.00
2023-02-20T06:42:35.061Z,99276.84
2023-02-20T06:45:39.163Z,99277.31
2023-02-20T06:48:46.186Z,99275.56
2023-02-20T06:51:48.923Z,99281.41
2023-02-20T06:54:52.918Z,99280.59
2023-02-20T06:57:55.881Z,99292.97
2023-02-20T07:01:00.534Z,99290.81
2023-02-20T07:04:03.564Z,99287.75
2023-02-20T07:07:06.352Z,99289.22
2023-02-20T07:10:09.625Z,99296.34
2023-02-20T07:13:12.393Z,99295.75
2023-02-20T07:16:16.797Z,99290.91
2023-02-20T07:19:19.692Z,99299.75
2023-02-20T07:22:22.757Z,99298.28
2023-02-20T07:25:25.462Z,99297.75
2023-02-20T07:29:39.397Z,99295.88
2023-02-20T09:02:57.451Z,99246.19
2023-02-20T09:07:30.357Z,99250.41
2023-02-20T13:33:26.325Z,98866.53
2023-02-20T13:36:41.934Z,98854.19
2023-02-20T13:39:44.657Z,98834.28
2023-02-20T13:42:47.339Z,98836.75
2023-02-20T13:46:11.422Z,98827.69
2023-02-20T13:49:58.841Z,98833.09
2023-02-20T13:53:06.080Z,98824.00
2023-02-20T13:56:16.843Z,98822.28
2023-02-20T13:59:21.517Z,98831.56
2023-02-20T14:02:29.557Z,98823.13
2023-02-20T14:05:33.964Z,98823.72
2023-02-20T14:08:37.469Z,98823.13
2023-02-20T14:11:41.216Z,98823.50
2023-02-20T14:14:45.890Z,98817.34
2023-02-20T14:17:48.665Z,98827.78
2023-02-20T14:20:58.975Z,98831.09
2023-02-20T14:24:17.614Z,98836.16
2023-02-20T14:27:27.676Z,98826.34
2023-02-20T14:30:31.816Z,98818.44
2023-02-20T14:33:35.562Z,98821.72
2023-02-20T14:36:50.458Z,98816.69
2023-02-20T14:40:04.328Z,98803.25
2023-02-20T14:43:15.402Z,98778.66
2023-02-20T14:46:24.241Z,98792.97
2023-02-20T14:49:30.838Z,98792.50
2023-02-20T14:52:34.901Z,98783.59
2023-02-20T14:55:37.605Z,98791.22
2023-02-20T14:58:40.319Z,98791.84
2023-02-20T15:01:43.115Z,98764.53
2023-02-20T15:04:50.191Z,98788.50
2023-02-20T15:08:02.482Z,98780.47
2023-02-20T15:11:10.048Z,98788.56
2023-02-20T15:14:20.273Z,98780.13
2023-02-20T15:17:26.051Z,98784.75
2023-02-20T15:20:38.385Z,98786.44
2023-02-20T15:23:45.294Z,98788.63
2023-02-20T15:26:48.073Z,98790.44
2023-02-20T15:30:10.197Z,98781.38
2023-02-20T15:33:13.308Z,98795.97
2023-02-20T15:36:19.438Z,98777.63
2023-02-20T15:39:24.046Z,98785.56
2023-02-20T15:42:26.738Z,98776.91
2023-02-20T15:45:31.684Z,98778.75
2023-02-20T15:48:34.368Z,98776.09
2023-02-20T15:51:40.480Z,98775.53
2023-02-20T15:54:48.985Z,98770.25
2023-02-20T15:57:56.649Z,98774.91
2023-02-20T16:00:59.509Z,98764.50
2023-02-20T16:04:02.396Z,98765.44
2023-02-20T16:07:05.053Z,98763.34
2023-02-20T16:10:10.534Z,98761.56
2023-02-20T16:13:25.549Z,98761.97
2023-02-20T16:16:33.462Z,98756.63
2023-02-20T16:19:42.334Z,98749.72
2023-02-20T16:22:45.754Z,98744.09
2023-02-20T16:25:51.018Z,98754.94
2023-02-20T16:28:57.838Z,98749.63
2023-02-20T16:32:22.172Z,98752.91
2023-02-20T16:35:24.906Z,98751.94
2023-02-20T16:38:27.633Z,98758.19
2023-02-20T16:41:32.358Z,98754.53
2023-02-20T16:44:39.024Z,98756.56
2023-02-20T16:47:42.481Z,98754.47
2023-02-20T16:50:48.631Z,98757.53
2023-02-20T16:53:51.305Z,98753.31
2023-02-20T16:56:55.386Z,98756.53
2023-02-20T17:00:00.387Z,98749.84
2023-02-20T17:03:04.285Z,98747.69
2023-02-20T17:06:07.848Z,98741.50
2023-02-20T17:09:10.453Z,98740.72
2023-02-20T17:12:17.336Z,98749.56
2023-02-20T17:15:22.928Z,98745.75
2023-02-20T17:18:25.583Z,98748.94
2023-02-20T17:21:28.373Z,98747.06
2023-02-20T17:24:31.000Z,98751.06
2023-02-20T17:27:35.320Z,98759.38
2023-02-20T17:30:38.021Z,98767.16
2023-02-20T17:33:41.296Z,98768.13
2023-02-20T17:36:49.102Z,98764.09
2023-02-20T17:39:52.204Z,98761.59
2023-02-20T17:42:56.212Z,98760.50
2023-02-20T17:45:59.153Z,98765.50
2023-02-20T17:49:01.883Z,98764.81
2023-02-20T17:52:04.948Z,98769.81
2023-02-20T17:55:08.195Z,98761.66
2023-02-20T17:58:12.391Z,98756.44
2023-02-20T18:01:15.160Z,98744.91
2023-02-20T18:04:21.113Z,98745.56
2023-02-20T18:07:24.099Z,98748.41
2023-02-20T18:10:26.847Z,98748.97
2023-02-20T18:13:31.260Z,98753.47
2023-02-20T18:16:33.997Z,98749.28
2023-02-20T18:19:36.953Z,98748.75
2023-02-20T18:22:39.680Z,98760.97
2023-02-20T18:25:42.365Z,98769.72
2023-02-20T18:28:46.587Z,98771.19
2023-02-20T18:31:49.782Z,98770.03
2023-02-20T18:34:52.597Z,98775.25
2023-02-20T18:37:55.741Z,98775.19
2023-02-20T18:40:58.829Z,98776.09
2023-02-20T18:44:02.909Z,98779.50
2023-02-20T18:47:05.629Z,98782.63
2023-02-20T18:50:08.612Z,98778.91
2023-02-20T18:53:11.392Z,98774.81
2023-02-20T18:56:14.411Z,98772.78
2023-02-20T18:59:19.227Z,98764.72
2023-02-20T19:02:22.053Z,98771.72
2023-02-20T19:05:26.446Z,98773.13
2023-02-20T19:08:29.157Z,98771.38
2023-02-20T19:11:32.052Z,98766.91
2023-02-20T19:14:37.629Z,98763.56
2023-02-20T19:17:40.601Z,98759.66
2023-02-20T19:20:43.335Z,98759.41
2023-02-20T19:23:47.148Z,98755.13
2023-02-20T19:26:49.904Z,98766.72
2023-02-20T19:29:54.256Z,98765.03
2023-02-20T19:32:57.065Z,98768.75
2023-02-20T19:36:00.047Z,98758.28
2023-02-20T19:39:03.327Z,98759.91
2023-02-20T19:42:06.972Z,98758.84
2023-02-20T19:45:11.850Z,98762.50
2023-02-20T19:48:14.898Z,98760.88
2023-02-20T19:51:19.610Z,98765.63
2023-02-20T19:54:25.951Z,98759.56
2023-02-20T19:57:28.880Z,98754.78
2023-02-20T20:00:33.401Z,98749.44
2023-02-20T20:03:36.065Z,98757.13
2023-02-20T20:06:38.868Z,98753.38
2023-02-20T20:09:44.452Z,98750.06
2023-02-20T20:12:50.136Z,98752.66
2023-02-20T20:15:54.285Z,98749.75
2023-02-20T20:18:58.348Z,98753.13
2023-02-20T20:22:01.053Z,98750.84
2023-02-20T20:25:03.911Z,98752.47
2023-02-20T20:28:09.113Z,98754.31
2023-02-20T20:31:13.479Z,98748.91
2023-02-20T20:34:16.388Z,98753.63
2023-02-20T20:37:20.388Z,98755.84
2023-02-20T20:40:24.768Z,98750.28
2023-02-20T20:43:27.465Z,98749.25
2023-02-20T20:46:33.097Z,98749.56
2023-02-20T20:49:37.537Z,98758.28
2023-02-20T20:52:40.292Z,98760.38
2023-02-20T20:55:43.471Z,98756.97
2023-02-20T20:58:46.452Z,98756.16
2023-02-20T21:01:50.695Z,98757.34
2023-02-20T21:05:08.966Z,98758.16
2023-02-20T21:08:12.397Z,98749.59
2023-02-20T21:11:15.600Z,98749.50
2023-02-20T21:14:19.235Z,98759.34
2023-02-20T21:17:23.453Z,98763.34
2023-02-20T21:20:29.251Z,98744.91
2023-02-20T21:23:32.083Z,98754.22
2023-02-20T21:26:37.900Z,98756.28
2023-02-20T21:29:40.600Z,98749.59
2023-02-20T21:32:44.740Z,98748.66
2023-02-20T21:35:47.559Z,98753.50
2023-02-20T21:38:50.378Z,98744.25
2023-02-20T21:42:11.122Z,98754.81
2023-02-20T21:45:13.888Z,98749.94
2023-02-20T21:48:20.582Z,98745.78
2023-02-20T21:51:23.572Z,98740.72
2023-02-20T21:54:28.203Z,98748.38
2023-02-20T21:57:31.083Z,98740.72
2023-02-20T22:00:32.724Z,98748.72
2023-02-20T22:03:35.665Z,98745.13
2023-02-20T22:06:37.632Z,98745.81
2023-02-20T22:09:57.838Z,98754.03
2023-02-20T22:13:18.031Z,98742.66
2023-02-20T22:16:38.526Z,98745.22
2023-02-20T22:20:00.099Z,98744.28
2023-02-20T22:23:22.383Z,98746.38
2023-02-20T22:26:43.066Z,98739.41
2023-02-20T22:30:03.305Z,98738.06
2023-02-20T22:33:23.617Z,98735.97
2023-02-20T22:36:44.958Z,98734.47
2023-02-20T22:40:07.284Z,98746.25
2023-02-20T22:43:29.685Z,98753.19
2023-02-20T22:46:49.947Z,98749.72
2023-02-20T22:50:10.108Z,98745.50
2023-02-20T22:53:31.545Z,98745.06
2023-02-20T22:56:51.725Z,98742.47
2023-02-20T23:00:19.256Z,98736.28
2023-02-20T23:07:19.641Z,98739.34
2023-02-20T23:10:41.830Z,98732.41
2023-02-20T23:14:05.138Z,98740.41
2023-02-20T23:17:35.792Z,98720.75
2023-02-20T23:20:57.199Z,98718.91
2023-02-20T23:24:17.940Z,98721.91
2023-02-20T23:27:39.293Z,98723.28
2023-02-20T23:30:59.569Z,98717.28
2023-02-20T23:34:20.677Z,98721.47
2023-02-20T23:37:40.657Z,98715.66
2023-02-20T23:41:00.635Z,98717.84
2023-02-20T23:44:25.431Z,98710.09
2023-02-20T23:47:45.577Z,98707.09
2023-02-20T23:51:05.671Z,98715.53
2023-02-20T23:54:26.454Z,98717.31
2023-02-20T23:57:46.607Z,98712.47
